Time;durP1;ratioP1;P1;durP2;ratioP2;P2;SDS_P1;SDS_P2;PMS_P1;PMS_P2;Temp;Humidity;BMP_temperature;BMP_pressure;BME280_temperature;BME280_humidity;BME280_pressure;Samples;Min_cycle;Max_cycle;Signal;HPM_P1;HPM_P2
2022/10/07 00:01:48;;;;;;;65.20;38.40;;;10.90;99.90;;;;;;5075119;28;20032;-55
2022/10/07 00:04:14;;;;;;;58.75;35.33;;;10.80;99.90;;;;;;5074766;28;20028;-55
2022/10/07 00:06:40;;;;;;;66.05;35.20;;;10.80;99.90;;;;;;5074850;28;20490;-55
2022/10/07 00:09:06;;;;;;;61.42;35.28;;;10.80;99.90;;;;;;5074921;28;20086;-55
2022/10/07 00:11:32;;;;;;;88.72;43.22;;;10.80;99.90;;;;;;5074796;28;20139;-55
2022/10/07 00:14:01;;;;;;;83.25;41.65;;;10.70;99.90;;;;;;5074630;28;20051;-55
2022/10/07 00:16:32;;;;;;;61.42;35.38;;;10.70;99.90;;;;;;5074787;28;20116;-55
2022/10/07 00:19:00;;;;;;;60.97;34.67;;;10.70;99.90;;;;;;5074614;28;20082;-55
2022/10/07 00:21:29;;;;;;;53.50;35.03;;;10.60;99.90;;;;;;5074748;28;20037;-55
2022/10/07 00:23:55;;;;;;;55.15;33.13;;;10.60;99.90;;;;;;5074853;28;20529;-55
2022/10/07 00:26:24;;;;;;;52.97;33.20;;;10.60;99.90;;;;;;5094815;28;20124;-55
2022/10/07 00:28:50;;;;;;;51.95;33.45;;;10.60;99.90;;;;;;5093756;28;20050;-55
2022/10/07 00:31:40;;;;;;;57.65;33.13;;;10.60;99.90;;;;;;5094763;28;20032;-55
2022/10/07 00:34:06;;;;;;;53.72;33.03;;;10.60;99.90;;;;;;5093801;28;20020;-55
2022/10/07 00:36:35;;;;;;;54.50;32.30;;;10.50;99.90;;;;;;5094762;28;20596;-55
2022/10/07 00:39:04;;;;;;;60.67;34.67;;;10.50;99.90;;;;;;5094757;28;20094;-55
2022/10/07 00:41:36;;;;;;;66.85;37.25;;;10.50;99.90;;;;;;5093215;28;20028;-55
2022/10/07 00:44:31;;;;;;;59.30;34.63;;;10.50;99.90;;;;;;5093260;28;20031;-55
2022/10/07 00:46:59;;;;;;;64.88;36.17;;;10.50;99.90;;;;;;5075394;28;20550;-55
2022/10/07 00:49:29;;;;;;;58.95;35.95;;;10.50;99.90;;;;;;5074714;28;20056;-55
2022/10/07 00:51:56;;;;;;;63.22;36.10;;;10.60;99.90;;;;;;5074222;28;20093;-55
2022/10/07 00:54:23;;;;;;;64.55;35.80;;;10.50;99.90;;;;;;5074208;28;20025;-55
2022/10/07 00:56:50;;;;;;;64.25;36.10;;;10.50;99.90;;;;;;5073047;28;20028;-55
2022/10/07 00:59:17;;;;;;;58.92;34.28;;;10.50;99.90;;;;;;5073037;28;20385;-55
2022/10/07 01:01:45;;;;;;;53.53;29.83;;;10.60;99.90;;;;;;5074193;28;20037;-55
2022/10/07 01:04:13;;;;;;;52.30;30.90;;;10.60;99.90;;;;;;5074332;28;20043;-55
2022/10/07 01:06:40;;;;;;;43.70;27.77;;;10.50;99.90;;;;;;5078322;28;20161;-55
2022/10/07 01:09:08;;;;;;;48.17;28.98;;;10.50;99.90;;;;;;5078442;28;20064;-55
2022/10/07 01:11:39;;;;;;;47.92;29.80;;;10.50;99.90;;;;;;5077108;28;20025;-55
2022/10/07 01:14:28;;;;;;;45.70;28.48;;;10.50;99.90;;;;;;5078253;28;20076;-55
2022/10/07 01:17:12;;;;;;;47.72;29.42;;;10.50;99.90;;;;;;5078149;28;20059;-55
2022/10/07 01:20:03;;;;;;;46.80;29.27;;;10.30;99.90;;;;;;5078071;28;20028;-55
2022/10/07 01:22:53;;;;;;;52.80;29.58;;;10.20;99.90;;;;;;5078072;28;20147;-55
2022/10/07 01:25:41;;;;;;;58.03;33.40;;;10.20;99.90;;;;;;5076718;28;20039;-55
2022/10/07 01:28:12;;;;;;;53.15;31.75;;;10.10;99.90;;;;;;5076615;28;20038;-55
2022/10/07 01:30:47;;;;;;;56.17;32.58;;;10.10;99.90;;;;;;5076495;28;20028;-55
2022/10/07 01:33:20;;;;;;;65.43;33.45;;;10.20;99.90;;;;;;5078161;28;20033;-55
2022/10/07 01:35:49;;;;;;;54.70;31.50;;;10.20;99.90;;;;;;5077880;28;20056;-55
2022/10/07 01:38:18;;;;;;;66.28;34.35;;;10.20;99.90;;;;;;5077691;28;20020;-55
2022/10/07 01:41:08;;;;;;;58.90;33.35;;;10.20;99.90;;;;;;5076460;28;20036;-55
2022/10/07 01:43:35;;;;;;;61.72;31.50;;;10.10;99.90;;;;;;5075876;28;20502;-55
2022/10/07 01:46:05;;;;;;;67.22;36.05;;;10.00;99.90;;;;;;5077490;28;20483;-55
2022/10/07 01:48:31;;;;;;;61.50;33.45;;;10.00;99.90;;;;;;5077565;28;20079;-55
2022/10/07 01:51:00;;;;;;;62.75;34.75;;;10.00;99.90;;;;;;5076033;28;20397;-55
2022/10/07 01:53:36;;;;;;;60.03;33.85;;;10.00;99.90;;;;;;5076139;28;20029;-55
2022/10/07 01:56:05;;;;;;;64.78;35.33;;;10.00;99.90;;;;;;5077382;28;20021;-55
2022/10/07 01:58:57;;;;;;;55.90;33.03;;;9.90;99.90;;;;;;5077203;28;20029;-55
2022/10/07 02:01:59;;;;;;;62.05;32.67;;;9.90;99.90;;;;;;5035991;28;20036;-55
2022/10/07 02:04:52;;;;;;;47.80;30.35;;;9.90;99.90;;;;;;4979068;28;20034;-55
2022/10/07 02:07:38;;;;;;;51.38;29.25;;;9.90;99.90;;;;;;4979134;28;20046;-55
2022/10/07 02:10:16;;;;;;;48.78;28.90;;;9.90;99.90;;;;;;4995614;28;20081;-55
2022/10/07 02:12:58;;;;;;;55.13;31.23;;;9.90;99.90;;;;;;4995014;28;20520;-55
2022/10/07 02:15:43;;;;;;;49.22;27.95;;;9.80;99.90;;;;;;4978620;28;20026;-55
2022/10/07 02:18:14;;;;;;;48.42;29.45;;;9.80;99.90;;;;;;4978696;28;20089;-55
2022/10/07 02:20:44;;;;;;;90.23;42.13;;;9.80;99.90;;;;;;4978969;28;20550;-55
2022/10/07 02:23:12;;;;;;;48.75;29.27;;;9.90;99.90;;;;;;4995255;28;20033;-55
2022/10/07 02:25:49;;;;;;;48.65;28.27;;;9.80;99.90;;;;;;4992918;28;20120;-55
2022/10/07 02:28:19;;;;;;;53.65;27.50;;;9.70;99.90;;;;;;4998311;28;20129;-55
2022/10/07 02:30:48;;;;;;;37.60;25.58;;;9.80;99.90;;;;;;4997907;28;20120;-55
2022/10/07 02:33:16;;;;;;;43.65;26.38;;;9.90;99.90;;;;;;5014488;28;20043;-55
2022/10/07 02:36:21;;;;;;;39.78;25.23;;;9.80;99.90;;;;;;4998082;28;20120;-55
2022/10/07 02:38:47;;;;;;;45.90;25.40;;;9.70;99.90;;;;;;5038047;28;20074;-55
2022/10/07 02:41:57;;;;;;;40.80;25.48;;;9.80;99.90;;;;;;5095506;28;20024;-55
2022/10/07 02:45:10;;;;;;;48.03;26.00;;;9.80;99.90;;;;;;5095566;28;20489;-55
2022/10/07 02:47:40;;;;;;;47.42;27.85;;;9.90;99.90;;;;;;5053552;28;20029;-55
2022/10/07 02:50:11;;;;;;;41.83;25.75;;;9.90;99.90;;;;;;5055314;28;20025;-55
2022/10/07 02:52:40;;;;;;;40.13;26.52;;;9.90;99.90;;;;;;5056424;28;20041;-55
2022/10/07 02:55:13;;;;;;;43.10;26.50;;;9.80;99.90;;;;;;5056259;28;20440;-55
2022/10/07 02:57:44;;;;;;;39.50;25.15;;;9.90;99.90;;;;;;5056253;28;20406;-55
2022/10/07 03:00:12;;;;;;;36.45;24.30;;;9.80;99.90;;;;;;5054989;28;20025;-55
2022/10/07 03:02:53;;;;;;;43.78;25.40;;;9.90;99.90;;;;;;5056214;28;20033;-55
2022/10/07 03:05:24;;;;;;;39.78;25.48;;;9.90;99.90;;;;;;5055044;28;20037;-55
2022/10/07 03:07:56;;;;;;;39.45;24.02;;;9.80;99.90;;;;;;5054905;28;20033;-55
2022/10/07 03:10:25;;;;;;;48.13;25.67;;;9.80;99.90;;;;;;5054829;28;20059;-55
2022/10/07 03:12:52;;;;;;;41.90;23.50;;;9.80;99.90;;;;;;5054650;28;20364;-55
2022/10/07 03:15:18;;;;;;;45.80;26.50;;;9.80;99.90;;;;;;5054761;28;20025;-55
2022/10/07 03:17:45;;;;;;;61.67;31.85;;;9.80;99.90;;;;;;5054539;28;20025;-55
2022/10/07 03:20:13;;;;;;;55.53;29.30;;;9.80;99.90;;;;;;5054541;28;20072;-55
2022/10/07 03:22:43;;;;;;;46.33;26.40;;;9.80;99.90;;;;;;5055905;28;20032;-55
2022/10/07 03:25:12;;;;;;;48.83;27.13;;;9.70;99.90;;;;;;5065338;28;20086;-55
2022/10/07 03:27:39;;;;;;;47.85;25.00;;;9.70;99.90;;;;;;5074806;28;20557;-55
2022/10/07 03:30:06;;;;;;;42.17;24.15;;;9.70;99.90;;;;;;5074269;28;20039;-55
2022/10/07 03:32:32;;;;;;;38.08;22.90;;;9.60;99.90;;;;;;5074289;28;20033;-55
2022/10/07 03:34:59;;;;;;;38.88;24.40;;;9.70;99.90;;;;;;5074345;28;20040;-55
2022/10/07 03:37:28;;;;;;;39.97;22.63;;;9.50;99.90;;;;;;5074293;28;20036;-55
2022/10/07 03:39:54;;;;;;;43.65;22.65;;;9.60;99.90;;;;;;5074437;28;20021;-55
2022/10/07 03:42:20;;;;;;;36.15;22.65;;;9.50;99.90;;;;;;5074137;28;20129;-55
2022/10/07 03:44:48;;;;;;;36.67;22.67;;;9.40;99.90;;;;;;5074001;28;20028;-55
2022/10/07 03:47:16;;;;;;;42.63;24.20;;;9.30;99.90;;;;;;5054182;28;20029;-55
2022/10/07 03:49:45;;;;;;;39.45;22.33;;;9.20;99.90;;;;;;5053991;28;20043;-55
2022/10/07 03:52:11;;;;;;;43.05;23.55;;;9.20;99.90;;;;;;5055185;28;20037;-55
2022/10/07 03:54:37;;;;;;;45.30;23.83;;;9.20;99.90;;;;;;5053970;28;20083;-55
2022/10/07 03:57:48;;;;;;;41.22;24.27;;;9.20;99.90;;;;;;5070637;28;20033;-55
2022/10/07 03:59:52;;;;;;;44.03;24.83;;;9.10;99.90;;;;;;5053806;28;20384;-55
2022/10/07 04:02:22;;;;;;;40.95;24.05;;;9.20;99.90;;;;;;5053889;28;20067;-55
2022/10/07 04:04:51;;;;;;;57.60;31.10;;;9.10;99.90;;;;;;5070394;28;20033;-55
2022/10/07 04:07:20;;;;;;;64.53;32.85;;;9.00;99.90;;;;;;5053773;28;20386;-55
2022/10/07 04:09:46;;;;;;;59.65;29.15;;;9.00;99.90;;;;;;5055070;28;20063;-55
2022/10/07 04:12:12;;;;;;;56.08;29.65;;;9.10;99.90;;;;;;5053433;28;20049;-55
2022/10/07 04:14:38;;;;;;;52.08;28.50;;;9.10;99.90;;;;;;5054926;28;20425;-55
2022/10/07 04:17:04;;;;;;;58.17;28.23;;;9.10;99.90;;;;;;5054860;28;20029;-55
2022/10/07 04:19:30;;;;;;;51.85;28.70;;;9.00;99.90;;;;;;5069960;28;20387;-55
2022/10/07 04:21:56;;;;;;;52.50;27.23;;;9.00;99.90;;;;;;5054824;28;20092;-55
2022/10/07 04:24:22;;;;;;;54.67;28.52;;;9.10;99.90;;;;;;5057360;28;20115;-55
2022/10/07 04:26:49;;;;;;;53.95;28.02;;;9.10;99.90;;;;;;5073293;28;20040;-55
2022/10/07 04:29:15;;;;;;;63.75;29.17;;;9.20;99.90;;;;;;5073287;28;20028;-55
2022/10/07 04:31:41;;;;;;;51.60;26.88;;;9.20;99.90;;;;;;5074553;28;20032;-55
2022/10/07 04:34:07;;;;;;;49.22;27.70;;;9.10;99.90;;;;;;5073269;28;20039;-55
2022/10/07 04:36:37;;;;;;;49.08;25.50;;;9.10;99.90;;;;;;5073339;28;20024;-55
2022/10/07 04:39:10;;;;;;;49.97;27.20;;;9.10;99.90;;;;;;5072921;28;20032;-55
2022/10/07 04:41:41;;;;;;;57.22;27.33;;;9.10;99.90;;;;;;5072947;28;20032;-55
2022/10/07 04:44:13;;;;;;;58.17;26.27;;;9.10;99.90;;;;;;5072997;28;20051;-55
2022/10/07 04:46:47;;;;;;;58.97;28.73;;;9.10;99.90;;;;;;5073230;28;20032;-55
2022/10/07 04:49:16;;;;;;;50.00;25.23;;;9.20;99.90;;;;;;5072929;28;20032;-55
2022/10/07 04:51:42;;;;;;;45.28;24.38;;;9.10;99.90;;;;;;5074389;28;20112;-55
2022/10/07 04:54:08;;;;;;;40.80;24.95;;;9.10;99.90;;;;;;5072807;28;20033;-55
2022/10/07 04:56:43;;;;;;;42.30;24.00;;;9.00;99.90;;;;;;5073053;28;20024;-55
2022/10/07 04:59:12;;;;;;;43.80;25.05;;;8.90;99.90;;;;;;5072976;28;20028;-55
2022/10/07 05:01:39;;;;;;;48.55;24.00;;;9.00;99.90;;;;;;5073182;28;20394;-55
2022/10/07 05:04:05;;;;;;;41.03;24.67;;;8.90;99.90;;;;;;5072918;28;20027;-55
2022/10/07 05:06:32;;;;;;;40.72;23.23;;;8.90;99.90;;;;;;5072948;28;20083;-55
2022/10/07 05:08:58;;;;;;;39.47;24.58;;;8.70;99.90;;;;;;5072580;28;20028;-55
2022/10/07 05:11:25;;;;;;;42.38;26.55;;;8.80;99.90;;;;;;5072659;28;20035;-55
2022/10/07 05:13:57;;;;;;;44.50;25.88;;;8.80;99.90;;;;;;5072775;28;20059;-55
2022/10/07 05:16:24;;;;;;;43.30;25.63;;;8.90;99.90;;;;;;5072715;28;20025;-55
2022/10/07 05:18:51;;;;;;;44.38;25.52;;;8.80;99.90;;;;;;5072058;28;20021;-55
2022/10/07 05:21:17;;;;;;;48.35;25.95;;;9.00;99.90;;;;;;5074940;28;20040;-55
2022/10/07 05:23:45;;;;;;;48.28;26.08;;;9.10;99.90;;;;;;5073307;28;20036;-55
2022/10/07 05:26:15;;;;;;;44.92;23.85;;;9.10;99.90;;;;;;5073408;28;20355;-55
2022/10/07 05:28:48;;;;;;;66.03;27.17;;;9.20;99.90;;;;;;5071648;28;20036;-55
2022/10/07 05:31:17;;;;;;;84.30;28.90;;;9.30;99.90;;;;;;5072807;28;20035;-55
2022/10/07 05:33:50;;;;;;;59.22;27.13;;;9.50;99.90;;;;;;5073098;28;20029;-55
2022/10/07 05:36:18;;;;;;;64.05;32.13;;;9.70;99.90;;;;;;5072430;28;20486;-55
2022/10/07 05:38:45;;;;;;;74.38;38.30;;;9.80;99.90;;;;;;5072117;28;20067;-55
2022/10/07 05:41:11;;;;;;;130.10;65.88;;;9.90;99.90;;;;;;5072095;28;20481;-55
2022/10/07 05:43:43;;;;;;;265.63;110.85;;;10.00;99.90;;;;;;5072293;28;20027;-55
2022/10/07 05:46:16;;;;;;;206.50;91.97;;;10.10;99.90;;;;;;5071998;28;20035;-55
2022/10/07 05:48:50;;;;;;;192.30;84.60;;;10.20;99.90;;;;;;5069080;28;20024;-55
2022/10/07 05:51:22;;;;;;;181.13;80.85;;;10.20;99.90;;;;;;5073271;28;20074;-55
2022/10/07 05:53:56;;;;;;;200.90;85.03;;;10.40;99.90;;;;;;5065887;28;20117;-55
2022/10/07 05:56:27;;;;;;;149.18;65.65;;;10.60;99.90;;;;;;5070572;28;20359;-55
2022/10/07 05:58:56;;;;;;;123.50;52.70;;;10.80;99.90;;;;;;5071163;28;20031;-55
2022/10/07 06:01:25;;;;;;;110.13;50.22;;;10.90;99.90;;;;;;5074160;28;20028;-55
2022/10/07 06:03:54;;;;;;;107.60;47.08;;;10.90;99.90;;;;;;5076726;28;20486;-55
2022/10/07 06:06:23;;;;;;;110.63;42.55;;;11.10;99.90;;;;;;5066865;28;20479;-55
2022/10/07 06:08:51;;;;;;;107.95;45.28;;;11.30;99.90;;;;;;5075693;28;20098;-56
2022/10/07 06:14:07;;;;;;;86.93;41.97;;;11.70;99.90;;;;;;5073042;28;20040;-56
2022/10/07 06:16:33;;;;;;;109.57;44.50;;;11.90;99.90;;;;;;5076597;28;20028;-56
2022/10/07 06:18:59;;;;;;;96.70;40.70;;;12.20;99.90;;;;;;5075269;28;20029;-56
2022/10/07 06:21:27;;;;;;;94.45;42.35;;;12.50;99.90;;;;;;5075248;28;20043;-56
2022/10/07 06:23:57;;;;;;;91.72;41.05;;;12.70;99.90;;;;;;5075883;28;20029;-56
2022/10/07 06:26:28;;;;;;;66.72;36.50;;;13.10;99.90;;;;;;5095435;28;20047;-56
2022/10/07 06:29:07;;;;;;;80.63;37.15;;;13.30;99.90;;;;;;5095190;28;20028;-56
2022/10/07 06:31:33;;;;;;;69.45;36.60;;;13.70;99.90;;;;;;5095257;28;20036;-56
2022/10/07 06:34:02;;;;;;;80.22;37.40;;;14.10;99.90;;;;;;5095388;28;20047;-56
2022/10/07 06:36:28;;;;;;;69.72;35.17;;;14.30;99.90;;;;;;5095230;28;20035;-56
2022/10/07 06:38:56;;;;;;;69.15;37.00;;;14.40;99.90;;;;;;5095207;28;20089;-56
2022/10/07 06:41:28;;;;;;;83.88;40.05;;;14.90;99.90;;;;;;5094792;28;20047;-56
2022/10/07 06:44:06;;;;;;;72.55;35.58;;;15.30;99.90;;;;;;5095481;28;20036;-56
2022/10/07 06:46:33;;;;;;;89.28;38.20;;;15.40;99.90;;;;;;5080730;28;20050;-56
2022/10/07 06:48:59;;;;;;;73.00;34.95;;;15.70;99.90;;;;;;5074356;28;20524;-56
2022/10/07 06:51:25;;;;;;;71.45;34.22;;;15.90;99.90;;;;;;5073988;28;20455;-56
2022/10/07 06:53:55;;;;;;;78.15;35.38;;;16.10;99.90;;;;;;5075428;28;20017;-56
2022/10/07 06:56:21;;;;;;;64.32;33.67;;;16.30;99.90;;;;;;5075458;28;20138;-56
2022/10/07 06:58:48;;;;;;;77.50;33.85;;;16.40;99.90;;;;;;5075051;28;20415;-56
2022/10/07 07:01:19;;;;;;;69.47;31.65;;;16.40;99.90;;;;;;5075595;28;20020;-56
2022/10/07 07:03:45;;;;;;;60.35;30.67;;;16.40;99.90;;;;;;5076233;28;20036;-56
2022/10/07 07:06:11;;;;;;;59.22;31.80;;;16.70;99.90;;;;;;5070505;28;20042;-56
2022/10/07 07:08:39;;;;;;;52.42;28.60;;;17.10;99.90;;;;;;5055092;28;20036;-56
2022/10/07 07:13:56;;;;;;;60.53;29.27;;;17.40;99.90;;;;;;5070453;28;20132;-56
2022/10/07 07:16:23;;;;;;;64.63;28.30;;;17.90;99.90;;;;;;5064939;28;20029;-56
2022/10/07 07:18:56;;;;;;;60.25;28.45;;;18.10;99.90;;;;;;5074943;28;20032;-56
2022/10/07 07:21:33;;;;;;;50.35;27.33;;;18.00;98.70;;;;;;5074221;28;20040;-57
2022/10/07 07:24:01;;;;;;;40.92;25.52;;;18.20;98.70;;;;;;5075493;28;20085;-56
2022/10/07 07:26:29;;;;;;;52.33;27.48;;;18.20;99.10;;;;;;5074177;28;20031;-56
2022/10/07 07:28:58;;;;;;;40.28;25.25;;;18.70;99.70;;;;;;5072572;28;20498;-56
2022/10/07 07:31:28;;;;;;;56.22;28.13;;;18.80;97.20;;;;;;5073169;28;20093;-56
2022/10/07 07:33:59;;;;;;;51.72;26.88;;;19.30;95.80;;;;;;5074605;28;20029;-56
2022/10/07 07:36:25;;;;;;;;;;;19.30;94.10;;;;;;5074893;28;20032;-56
2022/10/07 07:38:58;;;;;;;65.07;39.65;;;19.70;93.70;;;;;;5088675;28;19961;-58
2022/10/07 07:41:28;;;;;;;81.03;55.58;;;20.00;92.30;;;;;;5096168;28;20410;-56
2022/10/07 07:43:56;;;;;;;;;;;20.50;92.40;;;;;;5095068;28;20028;-56
2022/10/07 07:46:25;;;;;;;76.97;42.38;;;20.40;90.60;;;;;;5081801;28;19909;-56
2022/10/07 07:48:53;;;;;;;67.85;40.67;;;19.90;90.30;;;;;;5071960;28;20028;-56
2022/10/07 07:51:21;;;;;;;65.38;39.03;;;19.70;90.10;;;;;;5071928;28;20077;-56
2022/10/07 07:53:52;;;;;;;40.08;22.27;;;19.80;91.50;;;;;;5072778;28;20063;-56
2022/10/07 07:56:20;;;;;;;39.83;22.27;;;19.60;90.70;;;;;;5073021;28;20033;-57
2022/10/07 07:58:46;;;;;;;35.92;21.77;;;19.40;90.60;;;;;;5100715;28;20025;-56
2022/10/07 08:01:17;;;;;;;43.03;21.77;;;19.20;91.90;;;;;;5073155;28;20075;-56
2022/10/07 08:03:46;;;;;;;30.95;19.33;;;19.30;92.80;;;;;;5073310;28;20036;-56
2022/10/07 08:06:17;;;;;;;42.63;21.92;;;19.40;92.90;;;;;;5073124;28;20543;-56
2022/10/07 08:08:43;;;;;;;;;;;20.10;92.10;;;;;;5073115;28;20036;-56
2022/10/07 08:11:19;;;;;;;37.25;20.55;;;20.40;90.50;;;;;;5072333;28;19909;-56
2022/10/07 08:13:47;;;;;;;30.50;19.05;;;21.00;90.60;;;;;;5071573;28;20179;-56
2022/10/07 08:16:18;;;;;;;31.02;17.58;;;20.60;84.00;;;;;;5070246;28;20054;-56
2022/10/07 08:18:47;;;;;;;28.63;17.23;;;20.60;90.00;;;;;;5072377;28;20056;-56
2022/10/07 08:21:19;;;;;;;22.05;15.20;;;21.40;84.80;;;;;;5073113;28;20254;-56
2022/10/07 08:23:53;;;;;;;30.20;16.23;;;21.70;81.30;;;;;;5073209;28;20040;-56
2022/10/07 08:26:20;;;;;;;25.48;16.02;;;22.30;78.50;;;;;;5072843;28;20127;-57
2022/10/07 08:28:47;;;;;;;32.72;16.05;;;23.20;74.90;;;;;;5072734;28;20024;-57
2022/10/07 08:31:16;;;;;;;21.67;13.85;;;23.30;75.40;;;;;;5072662;28;20033;-57
2022/10/07 08:33:43;;;;;;;38.13;15.73;;;23.50;68.60;;;;;;5074169;28;20104;-57
2022/10/07 08:36:15;;;;;;;19.63;13.68;;;23.50;69.00;;;;;;5074354;28;20367;-57
2022/10/07 08:38:41;;;;;;;21.30;12.90;;;23.90;68.00;;;;;;5074370;28;20105;-57
2022/10/07 08:41:32;;;;;;;25.50;12.18;;;23.50;67.40;;;;;;5074136;28;20027;-57
2022/10/07 08:44:12;;;;;;;29.05;13.82;;;23.90;68.10;;;;;;5074273;28;20499;-57
2022/10/07 08:46:47;;;;;;;19.30;13.00;;;24.30;65.30;;;;;;5073879;28;20462;-57
2022/10/07 08:49:17;;;;;;;20.92;13.00;;;24.70;60.80;;;;;;5073687;28;20032;-57
2022/10/07 08:51:57;;;;;;;23.95;13.27;;;24.70;63.10;;;;;;5073858;28;20028;-57
2022/10/07 08:54:29;;;;;;;19.42;10.93;;;25.10;62.80;;;;;;5073905;28;20032;-57
2022/10/07 08:57:12;;;;;;;24.73;12.25;;;25.20;60.40;;;;;;5073913;28;20103;-57
2022/10/07 08:59:43;;;;;;;20.90;12.27;;;25.70;59.60;;;;;;5074077;28;20386;-57
2022/10/07 09:02:44;;;;;;;17.83;11.68;;;25.70;59.60;;;;;;5073313;28;20024;-57
2022/10/07 09:05:19;;;;;;;19.85;12.30;;;26.30;58.60;;;;;;5073822;28;20028;-57
2022/10/07 09:08:03;;;;;;;49.50;15.75;;;26.00;55.90;;;;;;5073802;28;20557;-57
2022/10/07 09:10:38;;;;;;;32.83;13.32;;;26.50;55.60;;;;;;5073646;28;20059;-57
2022/10/07 09:13:15;;;;;;;19.42;11.95;;;26.60;55.20;;;;;;5073591;28;20094;-57
2022/10/07 09:16:12;;;;;;;21.73;12.30;;;27.00;56.00;;;;;;5072132;28;20028;-58
2022/10/07 09:18:57;;;;;;;44.30;15.45;;;26.30;54.30;;;;;;5073508;28;20098;-57
2022/10/07 09:21:28;;;;;;;20.77;11.57;;;26.20;57.10;;;;;;5073882;28;20024;-57
2022/10/07 09:24:19;;;;;;;26.77;12.27;;;27.30;53.10;;;;;;5073534;28;20037;-57
2022/10/07 09:26:46;;;;;;;16.83;10.50;;;26.60;53.10;;;;;;5076039;28;20021;-57
2022/10/07 09:29:12;;;;;;;19.00;9.95;;;26.20;53.30;;;;;;5077352;28;20070;-57
2022/10/07 09:31:38;;;;;;;18.88;9.60;;;26.60;52.70;;;;;;5076754;28;20033;-57
2022/10/07 09:34:05;;;;;;;20.00;10.98;;;27.10;52.90;;;;;;5077679;28;20020;-57
2022/10/07 09:36:31;;;;;;;18.13;10.10;;;27.80;50.60;;;;;;5077458;28;20074;-57
2022/10/07 09:39:23;;;;;;;17.60;9.70;;;27.30;51.00;;;;;;5075354;28;20028;-57
2022/10/07 09:41:49;;;;;;;15.43;9.32;;;28.10;48.80;;;;;;5077762;28;20064;-57
2022/10/07 09:44:15;;;;;;;13.02;9.85;;;28.10;49.40;;;;;;5076903;28;20111;-57
2022/10/07 09:46:51;;;;;;;21.83;12.43;;;28.20;47.50;;;;;;5077098;28;20021;-57
2022/10/07 09:49:29;;;;;;;20.85;10.90;;;29.00;47.90;;;;;;5077305;28;20135;-58
2022/10/07 09:52:15;;;;;;;53.60;13.80;;;28.50;48.30;;;;;;5076853;28;20148;-57
2022/10/07 09:54:44;;;;;;;44.63;14.32;;;29.30;47.30;;;;;;5076828;28;20028;-57
2022/10/07 09:57:34;;;;;;;24.23;11.20;;;28.80;45.70;;;;;;5076691;28;20032;-58
2022/10/07 10:00:12;;;;;;;18.58;11.13;;;28.40;45.60;;;;;;5067303;28;20107;-58
2022/10/07 10:02:51;;;;;;;24.77;10.95;;;27.80;47.40;;;;;;5069093;28;20028;-58
2022/10/07 10:05:36;;;;;;;35.88;13.75;;;27.70;47.70;;;;;;5056670;28;20045;-58
2022/10/07 10:08:13;;;;;;;33.55;12.07;;;28.30;48.40;;;;;;5061971;28;20043;-58
2022/10/07 10:10:40;;;;;;;25.50;10.63;;;28.00;46.60;;;;;;5076711;28;20237;-58
2022/10/07 10:13:34;;;;;;;18.77;11.38;;;28.30;47.40;;;;;;5076210;28;20047;-58
2022/10/07 10:16:02;;;;;;;21.20;11.45;;;27.30;48.80;;;;;;5076356;28;20032;-58
2022/10/07 10:18:38;;;;;;;25.95;13.98;;;25.90;52.10;;;;;;5075626;28;20052;-58
2022/10/07 10:21:18;;;;;;;21.40;12.18;;;25.20;52.30;;;;;;5075290;28;20025;-58
2022/10/07 10:23:47;;;;;;;28.50;14.20;;;25.40;52.80;;;;;;5062785;28;20112;-58
2022/10/07 10:26:31;;;;;;;24.73;12.85;;;24.80;53.40;;;;;;5077075;28;20111;-58
2022/10/07 10:29:19;;;;;;;28.55;13.43;;;25.90;52.00;;;;;;5067351;28;20025;-58
2022/10/07 10:32:01;;;;;;;30.75;12.35;;;26.40;51.60;;;;;;5055987;28;20032;-58
2022/10/07 10:34:30;;;;;;;30.08;13.32;;;27.00;52.40;;;;;;5056356;28;20031;-57
2022/10/07 10:37:30;;;;;;;44.28;14.75;;;27.70;51.50;;;;;;5071903;28;20047;-58
2022/10/07 10:40:06;;;;;;;28.50;13.45;;;28.00;48.20;;;;;;5076196;28;20150;-58
2022/10/07 10:42:37;;;;;;;32.13;14.25;;;27.60;49.70;;;;;;5076040;28;20051;-58
2022/10/07 10:45:17;;;;;;;26.42;13.25;;;27.60;48.90;;;;;;5075812;28;20036;-58
2022/10/07 10:48:19;;;;;;;20.70;11.50;;;27.50;48.50;;;;;;5076126;28;20740;-58
2022/10/07 10:51:12;;;;;;;17.80;10.68;;;25.60;49.10;;;;;;5075961;28;20078;-58
2022/10/07 10:53:44;;;;;;;31.40;12.25;;;26.10;52.30;;;;;;5044919;28;20137;-57
2022/10/07 10:56:21;;;;;;;18.80;10.63;;;26.10;51.80;;;;;;5075483;28;20070;-58
2022/10/07 10:59:02;;;;;;;21.80;11.30;;;26.50;51.50;;;;;;5075931;28;20032;-58
2022/10/07 11:01:48;;;;;;;25.08;10.57;;;26.50;51.30;;;;;;5075521;28;20036;-58
2022/10/07 11:04:51;;;;;;;33.63;14.05;;;25.60;50.60;;;;;;5075761;28;20029;-58
2022/10/07 11:07:26;;;;;;;20.80;10.82;;;26.00;52.40;;;;;;5075812;28;20107;-58
2022/10/07 11:10:21;;;;;;;22.50;10.60;;;26.00;51.00;;;;;;5075637;28;20462;-58
2022/10/07 11:12:56;;;;;;;13.50;9.00;;;26.30;51.70;;;;;;5068519;28;20083;-58
2022/10/07 11:15:31;;;;;;;15.35;10.02;;;26.60;49.60;;;;;;5075756;28;20032;-58
2022/10/07 11:18:04;;;;;;;17.65;10.20;;;26.00;52.00;;;;;;5075398;28;20043;-58
2022/10/07 11:20:35;;;;;;;19.95;11.07;;;26.10;53.50;;;;;;5075597;28;20508;-58
2022/10/07 11:23:12;;;;;;;16.60;9.85;;;26.00;52.90;;;;;;5075554;28;20321;-58
2022/10/07 11:25:47;;;;;;;26.25;11.57;;;25.90;52.60;;;;;;5090070;28;20024;-58
2022/10/07 11:28:21;;;;;;;26.85;13.48;;;26.00;53.20;;;;;;5095644;28;20035;-58
2022/10/07 11:31:00;;;;;;;22.23;10.63;;;26.10;52.70;;;;;;5095084;28;20047;-58
2022/10/07 11:33:42;;;;;;;16.37;9.50;;;25.30;52.00;;;;;;5095263;28;20032;-58
2022/10/07 11:36:17;;;;;;;23.60;11.80;;;25.60;53.60;;;;;;5095768;28;20035;-58
2022/10/07 11:38:45;;;;;;;20.30;10.93;;;25.60;53.60;;;;;;5095104;28;20032;-58
2022/10/07 11:41:28;;;;;;;35.42;12.32;;;25.00;56.30;;;;;;5095268;28;20032;-58
2022/10/07 11:44:02;;;;;;;19.38;9.57;;;25.10;56.40;;;;;;5095239;28;20034;-58
2022/10/07 11:46:44;;;;;;;29.67;12.95;;;25.20;54.20;;;;;;5081241;28;20035;-58
2022/10/07 11:49:10;;;;;;;18.23;9.90;;;25.30;53.90;;;;;;5074288;28;20055;-58
2022/10/07 11:51:38;;;;;;;12.40;8.52;;;25.30;56.80;;;;;;5074875;28;20425;-58
2022/10/07 11:54:12;;;;;;;20.02;10.10;;;25.10;54.60;;;;;;5074670;28;20040;-58
2022/10/07 11:56:51;;;;;;;28.20;12.80;;;24.90;55.70;;;;;;5074760;28;20024;-58
2022/10/07 11:59:44;;;;;;;27.58;12.05;;;24.80;55.20;;;;;;5072420;28;20470;-58
2022/10/07 12:02:29;;;;;;;22.52;11.70;;;24.30;56.00;;;;;;5074421;28;20029;-58
2022/10/07 12:04:56;;;;;;;24.25;11.95;;;24.70;55.70;;;;;;5074212;28;20480;-58
2022/10/07 12:07:33;;;;;;;24.83;11.57;;;25.10;55.90;;;;;;5074286;28;20028;-58
2022/10/07 12:10:00;;;;;;;25.38;11.38;;;25.30;56.40;;;;;;5074525;28;20143;-57
2022/10/07 12:12:42;;;;;;;19.77;9.55;;;25.50;57.00;;;;;;5074236;28;20045;-58
2022/10/07 12:15:33;;;;;;;26.83;10.20;;;25.70;56.80;;;;;;5071451;28;20036;-57
2022/10/07 12:18:04;;;;;;;26.95;11.68;;;25.30;54.10;;;;;;5072062;28;20127;-57
2022/10/07 12:20:51;;;;;;;22.23;10.50;;;25.20;54.70;;;;;;5069915;28;20035;-57
2022/10/07 12:23:17;;;;;;;55.05;28.15;;;25.30;56.10;;;;;;5073463;28;20055;-57
2022/10/07 12:25:47;;;;;;;20.40;11.20;;;25.30;57.30;;;;;;5089228;28;20032;-57
2022/10/07 12:28:33;;;;;;;17.42;9.57;;;24.90;54.60;;;;;;5092935;28;20036;-58
2022/10/07 12:31:31;;;;;;;21.38;10.52;;;24.50;55.70;;;;;;5074115;28;20087;-57
2022/10/07 12:33:57;;;;;;;41.05;13.20;;;24.30;56.80;;;;;;5073736;28;20048;-57
2022/10/07 12:36:29;;;;;;;21.33;11.32;;;24.50;57.90;;;;;;5073956;28;20043;-57
2022/10/07 12:38:58;;;;;;;23.25;10.80;;;24.60;56.60;;;;;;5072711;28;20052;-57
2022/10/07 12:41:45;;;;;;;25.38;10.20;;;24.60;57.70;;;;;;5073857;28;20035;-57
2022/10/07 12:44:36;;;;;;;23.52;10.07;;;24.70;61.00;;;;;;5072335;28;20043;-57
2022/10/07 12:47:07;;;;;;;15.18;9.38;;;24.70;58.20;;;;;;5074051;28;20037;-58
2022/10/07 12:49:39;;;;;;;31.05;11.77;;;24.60;59.20;;;;;;5073556;28;20031;-57
2022/10/07 12:52:11;;;;;;;23.15;11.07;;;24.50;59.50;;;;;;5073791;28;20058;-57
2022/10/07 12:55:01;;;;;;;21.95;11.10;;;24.40;58.40;;;;;;5073281;28;20025;-57
2022/10/07 12:57:34;;;;;;;18.52;11.07;;;24.30;59.80;;;;;;5069937;28;20028;-57
2022/10/07 13:00:18;;;;;;;22.10;12.60;;;24.20;57.60;;;;;;5073816;28;20024;-58
2022/10/07 13:03:22;;;;;;;20.33;10.70;;;24.00;59.20;;;;;;5087077;28;20458;-57
2022/10/07 13:06:11;;;;;;;45.65;13.57;;;24.00;60.80;;;;;;5070477;28;20029;-57
2022/10/07 13:09:10;;;;;;;68.15;14.80;;;24.10;60.30;;;;;;5061691;28;20031;-57